sensor_id;sensor_type;location;lat;lon;timestamp;pressure;altitude;pressure_sealevel;temperature;humidity
19672;BME280;9983;51.114;13.788;2022-10-16T00:00:12;99127.94;;;16.93;100.00
19672;BME280;9983;51.114;13.788;2022-10-16T00:05:12;99127.34;;;17.09;100.00
19672;BME280;9983;51.114;13.788;2022-10-16T00:10:12;99128.25;;;17.03;100.00
19672;BME280;9983;51.114;13.788;2022-10-16T00:15:13;99140.91;;;17.09;100.00
19672;BME280;9983;51.114;13.788;2022-10-16T00:20:13;99147.06;;;16.98;100.00
19672;BME280;9983;51.114;13.788;2022-10-16T00:25:13;99148.41;;;16.89;100.00
19672;BME280;9983;51.114;13.788;2022-10-16T00:30:14;99149.56;;;16.75;100.00
19672;BME280;9983;51.114;13.788;2022-10-16T00:35:14;99149.88;;;16.60;100.00
19672;BME280;9983;51.114;13.788;2022-10-16T00:40:15;99151.28;;;16.44;100.00
19672;BME280;9983;51.114;13.788;2022-10-16T00:45:15;99159.25;;;16.32;100.00
19672;BME280;9983;51.114;13.788;2022-10-16T00:50:42;99160.00;;;16.46;100.00
19672;BME280;9983;51.114;13.788;2022-10-16T00:55:43;99165.84;;;16.43;100.00
19672;BME280;9983;51.114;13.788;2022-10-16T01:00:44;99169.69;;;16.29;100.00
19672;BME280;9983;51.114;13.788;2022-10-16T01:05:53;99167.91;;;16.48;100.00
19672;BME280;9983;51.114;13.788;2022-10-16T01:11:01;99165.41;;;16.46;100.00
19672;BME280;9983;51.114;13.788;2022-10-16T01:16:15;99161.97;;;16.57;100.00
19672;BME280;9983;51.114;13.788;2022-10-16T01:21:23;99157.19;;;16.59;100.00
19672;BME280;9983;51.114;13.788;2022-10-16T01:26:36;99166.63;;;16.50;100.00
19672;BME280;9983;51.114;13.788;2022-10-16T01:31:45;99178.00;;;16.59;100.00
19672;BME280;9983;51.114;13.788;2022-10-16T01:36:52;99171.50;;;16.66;100.00
19672;BME280;9983;51.114;13.788;2022-10-16T01:41:58;99180.91;;;16.64;100.00
19672;BME280;9983;51.114;13.788;2022-10-16T01:47:00;99180.94;;;16.82;100.00
19672;BME280;9983;51.114;13.788;2022-10-16T01:52:06;99178.31;;;16.44;100.00
19672;BME280;9983;51.114;13.788;2022-10-16T01:57:10;99170.19;;;16.76;100.00
19672;BME280;9983;51.114;13.788;2022-10-16T02:02:14;99172.63;;;17.02;100.00
19672;BME280;9983;51.114;13.788;2022-10-16T02:07:15;99185.75;;;17.05;100.00
19672;BME280;9983;51.114;13.788;2022-10-16T02:12:26;99188.25;;;17.06;100.00
19672;BME280;9983;51.114;13.788;2022-10-16T02:17:28;99194.47;;;17.07;100.00
19672;BME280;9983;51.114;13.788;2022-10-16T02:22:32;99189.50;;;17.04;100.00
19672;BME280;9983;51.114;13.788;2022-10-16T02:32:50;99189.31;;;17.24;100.00
19672;BME280;9983;51.114;13.788;2022-10-16T02:37:52;99196.66;;;17.35;100.00
19672;BME280;9983;51.114;13.788;2022-10-16T02:42:54;99189.97;;;17.37;100.00
19672;BME280;9983;51.114;13.788;2022-10-16T02:47:54;99200.06;;;17.30;100.00
19672;BME280;9983;51.114;13.788;2022-10-16T02:52:55;99186.22;;;17.38;100.00
19672;BME280;9983;51.114;13.788;2022-10-16T02:57:55;99185.31;;;17.44;100.00
19672;BME280;9983;51.114;13.788;2022-10-16T03:02:55;99186.69;;;17.72;100.00
19672;BME280;9983;51.114;13.788;2022-10-16T03:07:56;99184.91;;;17.59;100.00
19672;BME280;9983;51.114;13.788;2022-10-16T03:12:56;99180.53;;;17.65;100.00
19672;BME280;9983;51.114;13.788;2022-10-16T03:17:59;99195.53;;;17.61;100.00
19672;BME280;9983;51.114;13.788;2022-10-16T03:23:00;99194.59;;;17.73;100.00
19672;BME280;9983;51.114;13.788;2022-10-16T03:28:00;99200.69;;;17.69;100.00
19672;BME280;9983;51.114;13.788;2022-10-16T03:33:00;99210.31;;;17.47;100.00
19672;BME280;9983;51.114;13.788;2022-10-16T03:38:01;99208.22;;;17.49;100.00
19672;BME280;9983;51.114;13.788;2022-10-16T03:43:01;99200.97;;;17.61;100.00
19672;BME280;9983;51.114;13.788;2022-10-16T03:48:01;99210.44;;;17.52;100.00
19672;BME280;9983;51.114;13.788;2022-10-16T03:53:03;99213.31;;;17.38;100.00
19672;BME280;9983;51.114;13.788;2022-10-16T03:58:03;99234.53;;;17.41;100.00
19672;BME280;9983;51.114;13.788;2022-10-16T04:03:04;99225.97;;;17.44;100.00
19672;BME280;9983;51.114;13.788;2022-10-16T04:08:04;99226.56;;;17.47;100.00
19672;BME280;9983;51.114;13.788;2022-10-16T04:13:04;99225.03;;;17.32;100.00
19672;BME280;9983;51.114;13.788;2022-10-16T04:18:05;99241.75;;;17.29;100.00
19672;BME280;9983;51.114;13.788;2022-10-16T04:23:05;99240.25;;;17.33;100.00
19672;BME280;9983;51.114;13.788;2022-10-16T04:28:06;99245.50;;;17.28;100.00
19672;BME280;9983;51.114;13.788;2022-10-16T04:33:08;99245.38;;;17.23;100.00
19672;BME280;9983;51.114;13.788;2022-10-16T04:38:09;99240.41;;;17.38;100.00
19672;BME280;9983;51.114;13.788;2022-10-16T04:43:09;99257.75;;;17.13;100.00
19672;BME280;9983;51.114;13.788;2022-10-16T04:48:10;99260.50;;;17.31;100.00
19672;BME280;9983;51.114;13.788;2022-10-16T04:53:11;99254.25;;;17.30;100.00
19672;BME280;9983;51.114;13.788;2022-10-16T04:58:11;99243.75;;;17.40;100.00
19672;BME280;9983;51.114;13.788;2022-10-16T05:03:12;99235.88;;;17.32;100.00
19672;BME280;9983;51.114;13.788;2022-10-16T05:08:14;99255.31;;;16.80;100.00
19672;BME280;9983;51.114;13.788;2022-10-16T05:13:14;99258.13;;;17.16;100.00
19672;BME280;9983;51.114;13.788;2022-10-16T05:18:15;99251.06;;;17.15;100.00
19672;BME280;9983;51.114;13.788;2022-10-16T05:23:16;99268.09;;;16.73;100.00
19672;BME280;9983;51.114;13.788;2022-10-16T05:28:16;99271.84;;;17.21;100.00
19672;BME280;9983;51.114;13.788;2022-10-16T05:33:16;99274.28;;;17.29;100.00
19672;BME280;9983;51.114;13.788;2022-10-16T05:38:18;99270.28;;;17.32;100.00
19672;BME280;9983;51.114;13.788;2022-10-16T05:43:19;99268.84;;;17.29;100.00
19672;BME280;9983;51.114;13.788;2022-10-16T05:48:19;99291.09;;;17.13;100.00
19672;BME280;9983;51.114;13.788;2022-10-16T05:53:20;99290.63;;;17.16;100.00
19672;BME280;9983;51.114;13.788;2022-10-16T05:58:28;99305.53;;;17.07;100.00
19672;BME280;9983;51.114;13.788;2022-10-16T06:03:29;99305.69;;;17.12;100.00
19672;BME280;9983;51.114;13.788;2022-10-16T06:08:31;99312.53;;;17.39;100.00
19672;BME280;9983;51.114;13.788;2022-10-16T06:13:31;99313.72;;;17.43;100.00
19672;BME280;9983;51.114;13.788;2022-10-16T06:18:32;99327.22;;;17.25;100.00
19672;BME280;9983;51.114;13.788;2022-10-16T06:23:32;99331.78;;;17.31;100.00
19672;BME280;9983;51.114;13.788;2022-10-16T06:28:32;99337.75;;;17.15;100.00
19672;BME280;9983;51.114;13.788;2022-10-16T06:33:33;99343.47;;;17.25;100.00
19672;BME280;9983;51.114;13.788;2022-10-16T06:38:33;99344.91;;;17.53;100.00
19672;BME280;9983;51.114;13.788;2022-10-16T06:43:34;99349.19;;;17.67;100.00
19672;BME280;9983;51.114;13.788;2022-10-16T06:48:37;99353.44;;;17.81;100.00
19672;BME280;9983;51.114;13.788;2022-10-16T06:53:43;99354.03;;;17.83;100.00
19672;BME280;9983;51.114;13.788;2022-10-16T06:58:44;99364.44;;;18.04;100.00
19672;BME280;9983;51.114;13.788;2022-10-16T07:03:45;99368.34;;;18.08;100.00
19672;BME280;9983;51.114;13.788;2022-10-16T07:08:46;99382.97;;;18.26;100.00
19672;BME280;9983;51.114;13.788;2022-10-16T07:13:48;99389.94;;;18.22;100.00
19672;BME280;9983;51.114;13.788;2022-10-16T07:18:48;99390.19;;;18.50;100.00
19672;BME280;9983;51.114;13.788;2022-10-16T07:23:57;99403.78;;;18.68;100.00
19672;BME280;9983;51.114;13.788;2022-10-16T07:28:58;99409.22;;;18.68;100.00
19672;BME280;9983;51.114;13.788;2022-10-16T07:33:59;99424.63;;;18.74;100.00
19672;BME280;9983;51.114;13.788;2022-10-16T07:39:00;99429.13;;;18.80;100.00
19672;BME280;9983;51.114;13.788;2022-10-16T07:44:00;99444.88;;;18.90;100.00
19672;BME280;9983;51.114;13.788;2022-10-16T07:49:00;99438.28;;;18.98;100.00
19672;BME280;9983;51.114;13.788;2022-10-16T07:54:00;99452.84;;;19.03;100.00
19672;BME280;9983;51.114;13.788;2022-10-16T07:59:01;99450.56;;;19.30;100.00
19672;BME280;9983;51.114;13.788;2022-10-16T08:04:02;99463.38;;;19.41;100.00
19672;BME280;9983;51.114;13.788;2022-10-16T08:09:03;99443.09;;;19.55;100.00
19672;BME280;9983;51.114;13.788;2022-10-16T08:14:03;99426.69;;;19.74;100.00
19672;BME280;9983;51.114;13.788;2022-10-16T08:19:03;99424.56;;;19.87;100.00
19672;BME280;9983;51.114;13.788;2022-10-16T08:24:03;99455.31;;;19.88;100.00
19672;BME280;9983;51.114;13.788;2022-10-16T08:29:04;99442.44;;;20.06;100.00
19672;BME280;9983;51.114;13.788;2022-10-16T08:34:04;99437.47;;;20.15;98.56
19672;BME280;9983;51.114;13.788;2022-10-16T08:39:04;99443.63;;;20.22;99.91
19672;BME280;9983;51.114;13.788;2022-10-16T08:49:37;99461.09;;;20.26;94.83
19672;BME280;9983;51.114;13.788;2022-10-16T08:54:44;99445.84;;;20.49;96.15
19672;BME280;9983;51.114;13.788;2022-10-16T08:59:46;99441.19;;;20.61;96.46
19672;BME280;9983;51.114;13.788;2022-10-16T09:05:02;99448.78;;;20.59;95.08
19672;BME280;9983;51.114;13.788;2022-10-16T09:15:47;99447.28;;;20.91;92.50
19672;BME280;9983;51.114;13.788;2022-10-16T09:20:59;99440.59;;;20.59;91.43
19672;BME280;9983;51.114;13.788;2022-10-16T09:26:02;99460.19;;;20.84;88.33
19672;BME280;9983;51.114;13.788;2022-10-16T09:31:04;99467.44;;;21.47;89.15
19672;BME280;9983;51.114;13.788;2022-10-16T09:36:04;99469.47;;;21.11;86.37
19672;BME280;9983;51.114;13.788;2022-10-16T09:41:19;99467.28;;;21.70;88.26
19672;BME280;9983;51.114;13.788;2022-10-16T09:46:29;99475.25;;;22.05;85.48
19672;BME280;9983;51.114;13.788;2022-10-16T09:51:35;99482.09;;;21.74;85.00
19672;BME280;9983;51.114;13.788;2022-10-16T09:56:37;99481.13;;;22.14;83.39
19672;BME280;9983;51.114;13.788;2022-10-16T10:01:50;99481.31;;;22.46;83.25
19672;BME280;9983;51.114;13.788;2022-10-16T10:06:55;99495.53;;;21.92;83.61
19672;BME280;9983;51.114;13.788;2022-10-16T10:11:57;99490.78;;;21.71;85.23
19672;BME280;9983;51.114;13.788;2022-10-16T10:17:12;99498.75;;;22.23;82.65
19672;BME280;9983;51.114;13.788;2022-10-16T10:22:22;99499.13;;;22.48;80.57
19672;BME280;9983;51.114;13.788;2022-10-16T10:27:32;99514.25;;;23.16;77.20
19672;BME280;9983;51.114;13.788;2022-10-16T10:32:53;99515.56;;;22.53;77.70
19672;BME280;9983;51.114;13.788;2022-10-16T10:38:12;99518.19;;;22.82;76.76
19672;BME280;9983;51.114;13.788;2022-10-16T10:43:46;99506.22;;;23.31;74.82
19672;BME280;9983;51.114;13.788;2022-10-16T10:49:00;99514.28;;;23.43;74.57
19672;BME280;9983;51.114;13.788;2022-10-16T10:54:14;99521.63;;;22.94;75.00
19672;BME280;9983;51.114;13.788;2022-10-16T10:59:32;99526.34;;;22.43;77.63
19672;BME280;9983;51.114;13.788;2022-10-16T11:09:51;99521.19;;;22.63;77.03
19672;BME280;9983;51.114;13.788;2022-10-16T11:15:04;99512.56;;;22.71;75.79
19672;BME280;9983;51.114;13.788;2022-10-16T11:20:24;99521.19;;;22.63;74.77
19672;BME280;9983;51.114;13.788;2022-10-16T11:25:32;99518.97;;;22.99;75.05
19672;BME280;9983;51.114;13.788;2022-10-16T11:30:49;99520.97;;;22.87;73.02
19672;BME280;9983;51.114;13.788;2022-10-16T11:36:00;99512.72;;;22.82;74.15
19672;BME280;9983;51.114;13.788;2022-10-16T11:41:10;99520.72;;;23.10;73.92
19672;BME280;9983;51.114;13.788;2022-10-16T11:46:17;99528.38;;;23.08;72.39
19672;BME280;9983;51.114;13.788;2022-10-16T11:51:21;99537.09;;;22.66;72.55
19672;BME280;9983;51.114;13.788;2022-10-16T11:56:25;99546.19;;;22.72;70.92
19672;BME280;9983;51.114;13.788;2022-10-16T12:01:40;99541.41;;;22.62;71.84
19672;BME280;9983;51.114;13.788;2022-10-16T12:12:04;99549.22;;;23.14;70.75
19672;BME280;9983;51.114;13.788;2022-10-16T12:22:20;99546.66;;;23.29;69.42
19672;BME280;9983;51.114;13.788;2022-10-16T12:27:31;99540.97;;;23.09;69.66
19672;BME280;9983;51.114;13.788;2022-10-16T12:32:36;99552.13;;;22.86;72.11
19672;BME280;9983;51.114;13.788;2022-10-16T12:37:37;99550.06;;;23.15;70.55
19672;BME280;9983;51.114;13.788;2022-10-16T12:42:38;99556.03;;;22.90;70.47
19672;BME280;9983;51.114;13.788;2022-10-16T12:47:49;99555.00;;;23.39;70.36
19672;BME280;9983;51.114;13.788;2022-10-16T12:52:50;99564.88;;;23.94;67.64
19672;BME280;9983;51.114;13.788;2022-10-16T13:14:16;99586.50;;;23.20;69.03
19672;BME280;9983;51.114;13.788;2022-10-16T13:19:27;99582.28;;;22.91;70.46
19672;BME280;9983;51.114;13.788;2022-10-16T13:29:41;99567.38;;;23.69;67.32
19672;BME280;9983;51.114;13.788;2022-10-16T13:34:47;99586.38;;;23.54;67.17
19672;BME280;9983;51.114;13.788;2022-10-16T13:39:49;99577.69;;;23.62;68.12
19672;BME280;9983;51.114;13.788;2022-10-16T13:44:52;99585.59;;;23.36;70.02
19672;BME280;9983;51.114;13.788;2022-10-16T13:50:11;99577.47;;;23.41;70.18
19672;BME280;9983;51.114;13.788;2022-10-16T13:55:12;99584.34;;;23.22;70.25
19672;BME280;9983;51.114;13.788;2022-10-16T14:00:25;99599.41;;;23.46;70.10
19672;BME280;9983;51.114;13.788;2022-10-16T14:05:30;99595.66;;;23.53;72.40
19672;BME280;9983;51.114;13.788;2022-10-16T14:10:31;99604.06;;;23.68;73.81
19672;BME280;9983;51.114;13.788;2022-10-16T14:15:35;99608.78;;;23.51;71.95
19672;BME280;9983;51.114;13.788;2022-10-16T14:20:36;99604.53;;;23.60;76.02
19672;BME280;9983;51.114;13.788;2022-10-16T14:25:36;99610.94;;;23.49;75.21
19672;BME280;9983;51.114;13.788;2022-10-16T14:30:37;99602.28;;;23.57;78.20
19672;BME280;9983;51.114;13.788;2022-10-16T14:35:39;99602.75;;;23.10;84.97
19672;BME280;9983;51.114;13.788;2022-10-16T14:40:47;99600.13;;;23.59;80.52
19672;BME280;9983;51.114;13.788;2022-10-16T14:45:53;99607.25;;;23.60;83.55
19672;BME280;9983;51.114;13.788;2022-10-16T14:50:55;99610.28;;;23.63;85.22
19672;BME280;9983;51.114;13.788;2022-10-16T14:55:55;99610.50;;;23.57;85.56
19672;BME280;9983;51.114;13.788;2022-10-16T15:00:55;99624.53;;;23.43;87.74
19672;BME280;9983;51.114;13.788;2022-10-16T15:05:56;99624.91;;;23.30;89.88
19672;BME280;9983;51.114;13.788;2022-10-16T15:10:56;99632.41;;;23.18;91.19
19672;BME280;9983;51.114;13.788;2022-10-16T15:15:56;99640.19;;;23.26;91.39
19672;BME280;9983;51.114;13.788;2022-10-16T15:20:58;99651.50;;;23.13;93.41
19672;BME280;9983;51.114;13.788;2022-10-16T15:25:58;99656.09;;;22.91;95.53
19672;BME280;9983;51.114;13.788;2022-10-16T15:30:59;99655.53;;;22.89;95.95
19672;BME280;9983;51.114;13.788;2022-10-16T15:36:00;99671.75;;;22.79;96.49
19672;BME280;9983;51.114;13.788;2022-10-16T15:41:00;99677.94;;;22.57;98.68
19672;BME280;9983;51.114;13.788;2022-10-16T15:46:05;99677.50;;;22.32;100.00
19672;BME280;9983;51.114;13.788;2022-10-16T15:51:07;99686.78;;;22.31;100.00
19672;BME280;9983;51.114;13.788;2022-10-16T15:56:09;99679.94;;;22.00;100.00
19672;BME280;9983;51.114;13.788;2022-10-16T16:01:09;99682.69;;;21.88;100.00
19672;BME280;9983;51.114;13.788;2022-10-16T16:06:12;99686.94;;;21.56;100.00
19672;BME280;9983;51.114;13.788;2022-10-16T16:11:15;99691.16;;;21.24;100.00
19672;BME280;9983;51.114;13.788;2022-10-16T16:16:16;99703.09;;;21.34;100.00
19672;BME280;9983;51.114;13.788;2022-10-16T16:21:16;99703.91;;;21.11;100.00
19672;BME280;9983;51.114;13.788;2022-10-16T16:26:25;99702.03;;;21.00;100.00
19672;BME280;9983;51.114;13.788;2022-10-16T16:31:27;99718.84;;;20.97;100.00
19672;BME280;9983;51.114;13.788;2022-10-16T16:36:29;99721.91;;;20.66;100.00
19672;BME280;9983;51.114;13.788;2022-10-16T16:41:29;99736.44;;;20.60;100.00
19672;BME280;9983;51.114;13.788;2022-10-16T16:46:31;99744.56;;;20.36;100.00
19672;BME280;9983;51.114;13.788;2022-10-16T16:51:33;99755.34;;;20.13;100.00
19672;BME280;9983;51.114;13.788;2022-10-16T16:56:33;99759.31;;;19.99;100.00
19672;BME280;9983;51.114;13.788;2022-10-16T17:01:34;99762.88;;;20.11;100.00
19672;BME280;9983;51.114;13.788;2022-10-16T17:06:34;99775.03;;;19.79;100.00
19672;BME280;9983;51.114;13.788;2022-10-16T17:11:34;99787.25;;;20.06;100.00
19672;BME280;9983;51.114;13.788;2022-10-16T17:16:36;99788.31;;;19.87;100.00
19672;BME280;9983;51.114;13.788;2022-10-16T17:21:37;99794.50;;;19.76;100.00
19672;BME280;9983;51.114;13.788;2022-10-16T17:26:38;99799.72;;;19.34;100.00
19672;BME280;9983;51.114;13.788;2022-10-16T17:31:40;99800.97;;;19.38;100.00
19672;BME280;9983;51.114;13.788;2022-10-16T17:36:41;99807.41;;;19.19;100.00
19672;BME280;9983;51.114;13.788;2022-10-16T17:41:46;99814.50;;;19.20;100.00
19672;BME280;9983;51.114;13.788;2022-10-16T17:46:49;99815.47;;;19.07;100.00
19672;BME280;9983;51.114;13.788;2022-10-16T17:51:51;99825.16;;;18.97;100.00
19672;BME280;9983;51.114;13.788;2022-10-16T17:56:51;99840.97;;;19.06;100.00
19672;BME280;9983;51.114;13.788;2022-10-16T18:01:52;99843.13;;;18.98;100.00
19672;BME280;9983;51.114;13.788;2022-10-16T18:06:52;99852.41;;;18.83;100.00
19672;BME280;9983;51.114;13.788;2022-10-16T18:11:55;99861.69;;;19.01;100.00
19672;BME280;9983;51.114;13.788;2022-10-16T18:17:01;99870.84;;;18.75;100.00
19672;BME280;9983;51.114;13.788;2022-10-16T18:22:01;99876.59;;;18.91;100.00
19672;BME280;9983;51.114;13.788;2022-10-16T18:27:02;99880.53;;;18.64;100.00
19672;BME280;9983;51.114;13.788;2022-10-16T18:32:02;99889.63;;;18.76;100.00
19672;BME280;9983;51.114;13.788;2022-10-16T18:37:02;99890.50;;;18.70;100.00
19672;BME280;9983;51.114;13.788;2022-10-16T18:42:03;99899.66;;;18.82;100.00
19672;BME280;9983;51.114;13.788;2022-10-16T18:47:03;99892.19;;;18.71;100.00
19672;BME280;9983;51.114;13.788;2022-10-16T18:52:04;99890.38;;;18.52;100.00
19672;BME280;9983;51.114;13.788;2022-10-16T18:57:04;99898.50;;;18.65;100.00
19672;BME280;9983;51.114;13.788;2022-10-16T19:02:05;99898.50;;;18.52;100.00
19672;BME280;9983;51.114;13.788;2022-10-16T19:07:06;99892.66;;;18.62;100.00
19672;BME280;9983;51.114;13.788;2022-10-16T19:12:06;99879.72;;;18.50;100.00
19672;BME280;9983;51.114;13.788;2022-10-16T19:17:07;99876.22;;;18.37;100.00
19672;BME280;9983;51.114;13.788;2022-10-16T19:22:07;99892.34;;;18.32;100.00
19672;BME280;9983;51.114;13.788;2022-10-16T19:27:13;99903.19;;;18.38;100.00
19672;BME280;9983;51.114;13.788;2022-10-16T19:32:13;99920.31;;;18.26;100.00
19672;BME280;9983;51.114;13.788;2022-10-16T19:37:14;99923.16;;;18.50;100.00
19672;BME280;9983;51.114;13.788;2022-10-16T19:42:14;99933.25;;;18.37;100.00
19672;BME280;9983;51.114;13.788;2022-10-16T19:47:14;99934.59;;;18.01;100.00
19672;BME280;9983;51.114;13.788;2022-10-16T19:52:15;99936.97;;;18.42;100.00
19672;BME280;9983;51.114;13.788;2022-10-16T19:57:21;99935.00;;;18.05;100.00
19672;BME280;9983;51.114;13.788;2022-10-16T20:02:22;99940.34;;;18.38;100.00
19672;BME280;9983;51.114;13.788;2022-10-16T20:07:22;99940.75;;;18.35;100.00
19672;BME280;9983;51.114;13.788;2022-10-16T20:12:23;99940.78;;;18.28;100.00
19672;BME280;9983;51.114;13.788;2022-10-16T20:17:23;99927.13;;;17.90;100.00
19672;BME280;9983;51.114;13.788;2022-10-16T20:22:23;99934.50;;;18.34;100.00
19672;BME280;9983;51.114;13.788;2022-10-16T20:27:24;99940.75;;;18.35;100.00
19672;BME280;9983;51.114;13.788;2022-10-16T20:32:24;99942.88;;;18.33;100.00
19672;BME280;9983;51.114;13.788;2022-10-16T20:37:24;99944.97;;;18.31;100.00
19672;BME280;9983;51.114;13.788;2022-10-16T20:42:24;99951.63;;;18.35;100.00
19672;BME280;9983;51.114;13.788;2022-10-16T20:47:25;99965.47;;;18.13;100.00
19672;BME280;9983;51.114;13.788;2022-10-16T20:52:25;99955.25;;;18.15;100.00
19672;BME280;9983;51.114;13.788;2022-10-16T20:57:26;99962.91;;;18.32;100.00
19672;BME280;9983;51.114;13.788;2022-10-16T21:02:26;99955.19;;;18.29;100.00
19672;BME280;9983;51.114;13.788;2022-10-16T21:07:26;99975.47;;;18.19;100.00
19672;BME280;9983;51.114;13.788;2022-10-16T21:12:27;99982.97;;;18.17;100.00
19672;BME280;9983;51.114;13.788;2022-10-16T21:17:27;99998.44;;;18.04;100.00
19672;BME280;9983;51.114;13.788;2022-10-16T21:22:29;99993.88;;;17.98;100.00
19672;BME280;9983;51.114;13.788;2022-10-16T21:27:29;99999.31;;;17.65;100.00
19672;BME280;9983;51.114;13.788;2022-10-16T21:32:30;100010.78;;;17.73;100.00
19672;BME280;9983;51.114;13.788;2022-10-16T21:37:30;100015.97;;;17.75;100.00
19672;BME280;9983;51.114;13.788;2022-10-16T21:42:30;100004.66;;;17.38;100.00
19672;BME280;9983;51.114;13.788;2022-10-16T21:47:31;100004.44;;;17.27;100.00
19672;BME280;9983;51.114;13.788;2022-10-16T21:52:33;100007.13;;;17.14;100.00
19672;BME280;9983;51.114;13.788;2022-10-16T21:57:33;100004.66;;;17.32;100.00
19672;BME280;9983;51.114;13.788;2022-10-16T22:02:34;100005.50;;;17.39;100.00
19672;BME280;9983;51.114;13.788;2022-10-16T22:07:35;100003.38;;;17.34;100.00
19672;BME280;9983;51.114;13.788;2022-10-16T22:12:35;100005.84;;;17.16;100.00
19672;BME280;9983;51.114;13.788;2022-10-16T22:17:36;100012.09;;;17.17;100.00
19672;BME280;9983;51.114;13.788;2022-10-16T22:22:36;100016.69;;;17.16;100.00
19672;BME280;9983;51.114;13.788;2022-10-16T22:27:37;100016.69;;;17.16;100.00
19672;BME280;9983;51.114;13.788;2022-10-16T22:32:37;100029.09;;;16.91;100.00
19672;BME280;9983;51.114;13.788;2022-10-16T22:37:37;100037.81;;;16.80;100.00
19672;BME280;9983;51.114;13.788;2022-10-16T22:42:37;100034.97;;;17.01;100.00
19672;BME280;9983;51.114;13.788;2022-10-16T22:47:38;100036.22;;;16.23;100.00
19672;BME280;9983;51.114;13.788;2022-10-16T22:52:38;100027.34;;;16.63;100.00
19672;BME280;9983;51.114;13.788;2022-10-16T22:57:38;100016.56;;;16.77;100.00
19672;BME280;9983;51.114;13.788;2022-10-16T23:02:39;100026.13;;;16.73;100.00
19672;BME280;9983;51.114;13.788;2022-10-16T23:07:39;100032.09;;;16.61;100.00
19672;BME280;9983;51.114;13.788;2022-10-16T23:12:39;100035.69;;;16.68;100.00
19672;BME280;9983;51.114;13.788;2022-10-16T23:17:40;100036.91;;;16.04;100.00
19672;BME280;9983;51.114;13.788;2022-10-16T23:22:40;100042.75;;;16.63;100.00
19672;BME280;9983;51.114;13.788;2022-10-16T23:27:40;100039.22;;;16.41;100.00
19672;BME280;9983;51.114;13.788;2022-10-16T23:32:40;100047.03;;;16.57;100.00
19672;BME280;9983;51.114;13.788;2022-10-16T23:37:41;100049.34;;;16.60;100.00
19672;BME280;9983;51.114;13.788;2022-10-16T23:42:41;100054.63;;;16.41;100.00
19672;BME280;9983;51.114;13.788;2022-10-16T23:47:41;100055.28;;;16.71;100.00
19672;BME280;9983;51.114;13.788;2022-10-16T23:52:42;100067.81;;;16.50;100.00
19672;BME280;9983;51.114;13.788;2022-10-16T23:57:42;100055.97;;;15.96;100.00
